createdAt,value
2023-04-02T00:00:17.964Z,6.30
2023-04-02T00:02:50.369Z,4.68
2023-04-02T00:05:55.056Z,8.70
2023-04-02T00:08:28.659Z,6.88
2023-04-02T00:11:00.343Z,9.30
2023-04-02T00:13:37.064Z,8.73
2023-04-02T00:16:14.486Z,10.23
2023-04-02T00:18:49.248Z,8.70
2023-04-02T00:21:24.091Z,9.25
2023-04-02T00:23:56.780Z,6.53
2023-04-02T00:26:32.875Z,7.05
2023-04-02T00:29:03.807Z,9.88
2023-04-02T00:31:37.688Z,7.47
2023-04-02T00:34:11.731Z,9.43
2023-04-02T00:36:42.084Z,9.40
2023-04-02T00:39:19.733Z,11.40
2023-04-02T00:41:49.873Z,11.65
2023-04-02T00:44:22.330Z,13.43
2023-04-02T00:46:55.462Z,13.07
2023-04-02T00:49:32.823Z,12.68
2023-04-02T00:52:05.670Z,12.52
2023-04-02T00:54:42.840Z,17.33
2023-04-02T00:57:20.380Z,12.13
2023-04-02T00:59:59.891Z,11.95
2023-04-02T01:02:35.955Z,12.93
2023-04-02T01:05:23.132Z,17.13
2023-04-02T01:08:08.968Z,12.15
2023-04-02T01:10:55.649Z,12.27
2023-04-02T01:13:33.767Z,16.98
2023-04-02T01:16:09.531Z,12.50
2023-04-02T01:18:52.448Z,12.20
2023-04-02T01:21:54.435Z,14.05
2023-04-02T01:24:28.345Z,13.70
2023-04-02T01:27:01.258Z,14.02
2023-04-02T01:29:36.016Z,11.77
2023-04-02T01:32:08.582Z,14.27
2023-04-02T01:34:38.966Z,9.23
2023-04-02T01:37:27.619Z,13.95
2023-04-02T01:40:17.452Z,10.20
2023-04-02T01:42:56.190Z,10.85
2023-04-02T01:45:29.001Z,16.95
2023-04-02T01:47:59.431Z,13.73
2023-04-02T01:50:37.298Z,8.68
2023-04-02T01:53:11.362Z,8.77
2023-04-02T01:55:44.646Z,8.15
2023-04-02T01:58:15.501Z,8.25
2023-04-02T02:00:52.567Z,6.22
2023-04-02T02:03:23.576Z,11.18
2023-04-02T02:05:54.217Z,8.77
2023-04-02T02:08:35.871Z,6.93
2023-04-02T02:11:06.572Z,9.82
2023-04-02T02:13:36.927Z,10.05
2023-04-02T02:16:14.974Z,8.20
2023-04-02T02:18:45.112Z,8.80
2023-04-02T02:21:24.970Z,7.70
2023-04-02T02:23:55.521Z,10.07
2023-04-02T02:26:28.429Z,8.85
2023-04-02T02:29:00.634Z,8.98
2023-04-02T02:31:35.545Z,11.98
2023-04-02T02:34:11.664Z,9.70
2023-04-02T02:36:50.860Z,7.88
2023-04-02T02:39:28.190Z,7.00
2023-04-02T02:42:03.750Z,6.38
2023-04-02T02:44:38.036Z,8.63
2023-04-02T02:47:14.698Z,6.43
2023-04-02T02:49:47.408Z,7.03
2023-04-02T02:52:19.793Z,7.45
2023-04-02T02:54:59.462Z,9.82
2023-04-02T02:57:36.266Z,6.85
2023-04-02T03:00:11.222Z,8.50
2023-04-02T03:02:45.010Z,6.20
2023-04-02T03:05:20.786Z,11.27
2023-04-02T03:07:54.538Z,8.38
2023-04-02T03:10:32.578Z,5.38
2023-04-02T03:13:11.274Z,6.75
2023-04-02T03:15:45.942Z,8.13
2023-04-02T03:18:28.532Z,6.00
2023-04-02T03:21:03.555Z,5.03
2023-04-02T03:23:39.300Z,8.40
2023-04-02T03:26:14.248Z,5.82
2023-04-02T03:28:49.680Z,6.80
2023-04-02T03:31:26.658Z,6.65
2023-04-02T03:34:04.234Z,6.82
2023-04-02T03:36:43.733Z,6.60
2023-04-02T03:39:21.559Z,10.63
2023-04-02T03:41:58.602Z,6.63
2023-04-02T03:44:33.757Z,6.07
2023-04-02T03:47:13.224Z,4.15
2023-04-02T03:49:50.501Z,8.98
2023-04-02T03:52:25.709Z,9.20
2023-04-02T03:54:57.536Z,6.82
2023-04-02T03:57:33.136Z,7.72
2023-04-02T04:00:07.963Z,7.00
2023-04-02T04:02:48.207Z,5.25
2023-04-02T04:05:28.152Z,5.75
2023-04-02T04:08:04.970Z,5.72
2023-04-02T04:10:35.525Z,6.82
2023-04-02T04:13:10.043Z,5.95
2023-04-02T04:15:45.839Z,5.35
2023-04-02T04:18:30.042Z,6.38
2023-04-02T04:21:05.288Z,5.25
2023-04-02T04:23:50.826Z,5.72
2023-04-02T04:26:27.013Z,5.00
2023-04-02T04:29:09.825Z,5.63
2023-04-02T04:31:47.269Z,5.03
2023-04-02T04:34:23.276Z,5.32
2023-04-02T04:37:02.069Z,4.45
2023-04-02T04:39:45.577Z,5.07
2023-04-02T04:42:22.438Z,6.28
2023-04-02T04:44:57.882Z,5.32
2023-04-02T04:47:33.731Z,4.00
2023-04-02T04:50:09.997Z,6.00
2023-04-02T04:52:46.068Z,6.68
2023-04-02T04:55:29.370Z,6.45
2023-04-02T04:58:06.236Z,6.07
2023-04-02T05:00:45.341Z,3.80
2023-04-02T05:03:22.910Z,4.90
2023-04-02T05:05:54.210Z,3.88
2023-04-02T05:08:33.383Z,3.95
2023-04-02T05:11:08.273Z,5.93
2023-04-02T05:13:43.555Z,2.95
2023-04-02T05:16:21.792Z,2.72
2023-04-02T05:18:56.380Z,6.75
2023-04-02T05:21:31.569Z,3.83
2023-04-02T05:24:22.755Z,11.20
2023-04-02T05:26:54.860Z,3.80
2023-04-02T05:29:29.420Z,7.35
2023-04-02T05:32:04.745Z,5.85
2023-04-02T05:37:09.392Z,4.15
2023-04-02T05:39:47.401Z,4.60
2023-04-02T05:42:23.489Z,4.18
2023-04-02T05:45:11.459Z,5.65
2023-04-02T05:47:44.237Z,5.55
2023-04-02T05:50:26.454Z,7.15
2023-04-02T05:53:01.512Z,7.45
2023-04-02T05:55:44.631Z,7.13
2023-04-02T05:58:35.301Z,4.93
2023-04-02T06:01:30.151Z,6.00
2023-04-02T06:04:09.276Z,2.38
2023-04-02T06:06:50.169Z,5.80
2023-04-02T06:09:27.769Z,3.58
2023-04-02T06:12:07.188Z,3.15
2023-04-02T06:14:37.521Z,5.53
2023-04-02T06:17:07.730Z,5.15
2023-04-02T06:19:41.266Z,5.85
2023-04-02T06:22:19.426Z,5.78
2023-04-02T06:24:52.986Z,3.70
2023-04-02T06:27:28.893Z,4.25
2023-04-02T06:30:05.374Z,4.43
2023-04-02T06:32:35.679Z,4.72
2023-04-02T06:35:05.629Z,2.92
2023-04-02T06:37:39.233Z,3.90
2023-04-02T06:40:35.235Z,3.92
2023-04-02T06:43:20.068Z,4.85
2023-04-02T06:46:02.498Z,6.18
2023-04-02T06:48:49.592Z,5.00
2023-04-02T06:51:23.431Z,8.02
2023-04-02T06:53:53.680Z,5.53
2023-04-02T06:56:31.981Z,3.60
2023-04-02T06:59:07.570Z,5.43
2023-04-02T07:01:42.658Z,4.53
2023-04-02T07:04:13.138Z,2.78
2023-04-02T07:06:46.123Z,5.60
2023-04-02T07:09:17.739Z,6.13
2023-04-02T07:11:52.345Z,8.20
2023-04-02T07:14:25.437Z,10.77
2023-04-02T07:16:55.866Z,7.90
2023-04-02T07:19:26.166Z,4.95
2023-04-02T07:21:59.112Z,4.70
2023-04-02T07:24:34.357Z,5.15
2023-04-02T07:27:04.069Z,4.80
2023-04-02T07:29:37.581Z,2.85
2023-04-02T07:32:07.678Z,5.38
2023-04-02T07:34:37.365Z,9.00
2023-04-02T07:37:07.596Z,4.68
2023-04-02T07:39:39.480Z,7.20
2023-04-02T07:42:10.556Z,6.25
2023-04-02T07:44:42.837Z,5.15
2023-04-02T07:47:12.629Z,4.25
2023-04-02T07:49:42.284Z,8.95
2023-04-02T07:52:12.046Z,3.28
2023-04-02T07:54:41.790Z,6.65
2023-04-02T07:57:11.617Z,6.10
2023-04-02T07:59:46.486Z,3.08
2023-04-02T08:02:22.550Z,4.65
2023-04-02T08:04:52.826Z,3.42
2023-04-02T08:07:22.506Z,4.32
2023-04-02T08:09:52.240Z,3.65
2023-04-02T08:12:22.283Z,3.90
2023-04-02T08:14:54.610Z,6.45
2023-04-02T08:17:24.528Z,3.90
2023-04-02T08:19:56.207Z,5.53
2023-04-02T08:22:25.855Z,7.65
2023-04-02T08:24:56.500Z,7.05
2023-04-02T08:27:26.529Z,2.78
2023-04-02T08:29:59.016Z,6.63
2023-04-02T08:32:29.244Z,4.85
2023-04-02T08:34:59.092Z,3.00
2023-04-02T08:37:28.865Z,6.60
2023-04-02T08:39:58.524Z,6.82
2023-04-02T08:42:36.033Z,6.10
2023-04-02T08:45:25.425Z,4.55
2023-04-02T08:48:00.127Z,4.55
2023-04-02T08:50:34.746Z,4.18
2023-04-02T08:53:07.324Z,4.10
2023-04-02T08:55:43.034Z,3.35
2023-04-02T09:00:57.050Z,10.52
2023-04-02T09:03:31.672Z,3.25
2023-04-02T09:06:03.234Z,5.93
2023-04-02T09:08:35.636Z,5.50
2023-04-02T09:11:09.775Z,3.92
2023-04-02T09:13:46.680Z,3.70
2023-04-02T09:16:22.647Z,3.53
2023-04-02T09:18:55.863Z,3.92
2023-04-02T09:21:37.821Z,3.80
2023-04-02T09:24:08.196Z,2.95
2023-04-02T09:26:37.841Z,4.55
2023-04-02T09:29:28.092Z,5.07
2023-04-02T09:32:10.252Z,3.30
2023-04-02T09:34:39.948Z,5.05
2023-04-02T09:37:11.693Z,4.05
2023-04-02T09:39:41.360Z,3.85
2023-04-02T09:42:11.652Z,5.43
2023-04-02T09:44:41.413Z,4.07
2023-04-02T09:47:29.176Z,4.85
2023-04-02T09:50:16.856Z,2.63
2023-04-02T09:52:46.616Z,2.45
2023-04-02T09:55:24.299Z,4.10
2023-04-02T09:57:54.594Z,6.38
2023-04-02T10:00:32.136Z,3.88
2023-04-02T10:03:08.606Z,4.35
2023-04-02T10:08:21.435Z,6.65
2023-04-02T10:10:53.895Z,5.60
2023-04-02T10:13:30.462Z,4.22
2023-04-02T10:16:04.631Z,3.13
2023-04-02T10:18:47.666Z,4.10
2023-04-02T10:21:21.481Z,4.25
2023-04-02T10:23:51.655Z,4.68
2023-04-02T10:26:44.075Z,4.68
2023-04-02T10:29:39.129Z,3.63
2023-04-02T10:32:14.786Z,3.20
2023-04-02T10:34:55.784Z,2.97
2023-04-02T10:37:55.999Z,6.30
2023-04-02T10:40:31.254Z,8.23
2023-04-02T10:43:31.017Z,5.38
2023-04-02T10:46:06.412Z,6.60
2023-04-02T10:48:43.309Z,4.68
2023-04-02T10:51:28.280Z,5.05
2023-04-02T10:54:06.011Z,4.78
2023-04-02T10:56:48.050Z,3.15
2023-04-02T10:59:26.301Z,8.55
2023-04-02T11:01:59.615Z,7.40
2023-04-02T11:04:33.961Z,8.40
2023-04-02T11:07:14.439Z,5.35
2023-04-02T11:09:46.899Z,7.65
2023-04-02T11:12:24.753Z,6.82
2023-04-02T11:14:56.941Z,8.02
2023-04-02T11:17:27.788Z,5.68
2023-04-02T11:19:57.497Z,3.13
2023-04-02T11:22:29.861Z,2.72
2023-04-02T11:25:00.616Z,6.43
2023-04-02T11:27:32.290Z,6.93
2023-04-02T11:30:08.210Z,4.40
2023-04-02T11:32:42.722Z,4.18
2023-04-02T11:35:36.559Z,4.50
2023-04-02T11:38:39.268Z,2.55
2023-04-02T11:41:11.582Z,2.58
2023-04-02T11:43:52.852Z,5.15
2023-04-02T11:46:48.203Z,6.07
2023-04-02T11:50:01.857Z,3.47
2023-04-02T11:52:36.941Z,2.25
2023-04-02T11:55:25.222Z,2.33
2023-04-02T11:58:24.627Z,3.03
2023-04-02T12:01:31.195Z,4.95
2023-04-02T12:04:23.334Z,3.15
2023-04-02T12:07:10.828Z,2.45
2023-04-02T12:09:48.215Z,7.13
2023-04-02T12:12:28.761Z,3.50
2023-04-02T12:15:02.086Z,2.65
2023-04-02T12:17:34.091Z,9.32
2023-04-02T12:20:09.667Z,3.03
2023-04-02T12:22:43.563Z,3.63
2023-04-02T12:25:29.496Z,3.72
2023-04-02T12:28:17.989Z,3.78
2023-04-02T12:30:52.412Z,3.80
2023-04-02T12:33:33.970Z,3.72
2023-04-02T12:36:04.940Z,5.03
2023-04-02T12:38:37.447Z,5.25
2023-04-02T12:41:09.484Z,3.60
2023-04-02T12:43:40.594Z,3.63
2023-04-02T12:46:17.457Z,5.85
2023-04-02T12:48:47.252Z,5.15
2023-04-02T12:51:17.698Z,4.32
2023-04-02T12:53:53.423Z,3.15
2023-04-02T12:56:27.407Z,3.10
2023-04-02T12:58:58.288Z,2.25
2023-04-02T13:01:32.220Z,3.22
2023-04-02T13:04:03.791Z,2.13
2023-04-02T13:06:33.642Z,4.68
2023-04-02T13:09:05.298Z,2.38
2023-04-02T13:11:39.578Z,3.65
2023-04-02T13:14:18.755Z,2.58
2023-04-02T13:16:51.359Z,3.70
2023-04-02T13:19:29.144Z,3.85
2023-04-02T13:22:00.413Z,3.50
2023-04-02T13:24:31.745Z,4.57
2023-04-02T13:27:03.195Z,3.15
2023-04-02T13:29:34.227Z,2.55
2023-04-02T13:32:08.785Z,2.95
2023-04-02T13:34:38.451Z,2.60
2023-04-02T13:37:08.142Z,2.40
2023-04-02T13:39:37.829Z,4.47
2023-04-02T13:42:09.022Z,5.00
2023-04-02T13:44:39.829Z,2.75
2023-04-02T13:47:17.281Z,4.60
2023-04-02T13:49:46.983Z,1.85
2023-04-02T13:52:18.633Z,3.42
2023-04-02T13:54:51.640Z,4.30
2023-04-02T13:57:21.738Z,3.67
2023-04-02T13:59:51.440Z,2.45
2023-04-02T14:02:27.612Z,2.47
2023-04-02T14:05:10.363Z,2.15
2023-04-02T14:07:54.827Z,5.30
2023-04-02T14:10:31.933Z,3.40
2023-04-02T14:13:14.910Z,2.42
2023-04-02T14:15:57.590Z,3.83
2023-04-02T14:18:45.655Z,5.75
2023-04-02T14:21:22.290Z,3.38
2023-04-02T14:24:05.786Z,4.30
2023-04-02T14:26:44.488Z,8.73
2023-04-02T14:29:19.281Z,2.38
2023-04-02T14:31:58.373Z,3.42
2023-04-02T14:34:38.884Z,3.80
2023-04-02T14:37:17.340Z,5.05
2023-04-02T14:39:56.377Z,3.30
2023-04-02T14:42:33.787Z,2.63
2023-04-02T14:45:07.978Z,6.97
2023-04-02T14:47:42.535Z,2.83
2023-04-02T14:50:20.221Z,2.55
2023-04-02T14:52:54.673Z,2.67
2023-04-02T14:55:30.611Z,2.95
2023-04-02T14:58:07.023Z,2.67
2023-04-02T15:00:40.577Z,3.25
2023-04-02T15:03:16.537Z,4.15
2023-04-02T15:05:50.628Z,3.40
2023-04-02T15:08:25.988Z,1.45
2023-04-02T15:11:07.872Z,3.78
2023-04-02T15:13:40.710Z,11.68
2023-04-02T15:16:16.179Z,6.88
2023-04-02T15:18:45.931Z,3.83
2023-04-02T15:21:49.837Z,5.13
2023-04-02T15:24:33.536Z,2.60
2023-04-02T15:27:23.907Z,4.63
2023-04-02T15:29:59.451Z,2.45
2023-04-02T15:32:38.154Z,4.72
2023-04-02T15:35:20.343Z,4.47
2023-04-02T15:38:01.190Z,3.28
2023-04-02T15:40:49.446Z,8.93
2023-04-02T15:43:24.791Z,6.40
2023-04-02T15:46:03.881Z,5.70
2023-04-02T15:48:55.642Z,3.42
2023-04-02T15:51:41.544Z,4.47
2023-04-02T15:54:27.166Z,7.10
2023-04-02T15:57:12.162Z,3.92
2023-04-02T16:00:20.648Z,3.45
2023-04-02T16:03:14.164Z,4.38
2023-04-02T16:05:51.681Z,5.68
2023-04-02T16:08:50.635Z,4.63
2023-04-02T16:11:23.151Z,4.45
2023-04-02T16:13:53.176Z,3.35
2023-04-02T16:16:26.020Z,3.67
2023-04-02T16:19:01.766Z,3.28
2023-04-02T16:21:35.597Z,5.10
2023-04-02T16:24:05.618Z,6.72
2023-04-02T16:26:52.315Z,7.97
2023-04-02T16:29:55.082Z,5.35
2023-04-02T16:32:41.073Z,3.58
2023-04-02T16:35:41.944Z,3.77
2023-04-02T16:38:24.071Z,6.07
2023-04-02T16:41:08.401Z,4.32
2023-04-02T16:43:52.520Z,5.28
2023-04-02T16:46:38.992Z,6.07
2023-04-02T16:49:23.636Z,4.90
2023-04-02T16:52:05.162Z,6.78
2023-04-02T16:54:41.644Z,4.93
2023-04-02T16:57:23.182Z,10.60
2023-04-02T17:00:03.763Z,4.57
2023-04-02T17:02:47.522Z,10.65
2023-04-02T17:05:32.472Z,7.00
2023-04-02T17:08:14.154Z,3.55
2023-04-02T17:10:52.600Z,2.75
2023-04-02T17:13:29.952Z,3.50
2023-04-02T17:16:14.656Z,2.72
2023-04-02T17:18:49.008Z,4.35
2023-04-02T17:21:23.003Z,2.50
2023-04-02T17:23:56.956Z,6.20
2023-04-02T17:26:30.246Z,4.40
2023-04-02T17:29:03.493Z,3.42
2023-04-02T17:31:37.584Z,3.28
2023-04-02T17:34:15.809Z,7.07
2023-04-02T17:36:52.008Z,5.65
2023-04-02T17:39:28.649Z,22.70
2023-04-02T17:42:05.713Z,19.50
2023-04-02T17:44:47.826Z,23.63
2023-04-02T17:47:23.592Z,19.92
2023-04-02T17:50:05.064Z,6.60
2023-04-02T17:52:40.660Z,11.20
2023-04-02T17:55:22.161Z,6.55
2023-04-02T17:58:05.443Z,7.07
2023-04-02T18:00:46.754Z,8.13
2023-04-02T18:03:44.278Z,7.97
2023-04-02T18:06:18.776Z,16.48
2023-04-02T18:09:04.397Z,11.25
2023-04-02T18:11:44.644Z,6.72
2023-04-02T18:14:31.948Z,6.45
2023-04-02T18:17:11.193Z,9.80
2023-04-02T18:19:51.176Z,16.85
2023-04-02T18:22:31.443Z,15.55
2023-04-02T18:25:25.090Z,14.07
2023-04-02T18:28:07.329Z,12.75
2023-04-02T18:30:41.632Z,5.40
2023-04-02T18:33:31.961Z,8.32
2023-04-02T18:36:09.322Z,21.45
2023-04-02T18:38:45.653Z,13.82
2023-04-02T18:41:32.057Z,31.10
2023-04-02T18:44:17.797Z,29.30
2023-04-02T18:46:53.095Z,25.48
2023-04-02T18:49:29.869Z,4.88
2023-04-02T18:52:05.203Z,16.10
2023-04-02T18:54:38.434Z,4.80
2023-04-02T18:57:14.517Z,5.68
2023-04-02T18:59:49.271Z,6.68
2023-04-02T19:02:45.610Z,5.82
2023-04-02T19:05:23.205Z,3.50
2023-04-02T19:08:02.743Z,4.28
2023-04-02T19:10:36.355Z,5.28
2023-04-02T19:13:10.891Z,6.80
2023-04-02T19:15:55.267Z,5.78
2023-04-02T19:18:33.340Z,3.97
2023-04-02T19:21:15.342Z,6.15
2023-04-02T19:24:02.561Z,4.55
2023-04-02T19:26:38.754Z,8.02
2023-04-02T19:31:52.973Z,4.35
2023-04-02T19:34:31.246Z,4.93
2023-04-02T19:37:08.518Z,3.90
2023-04-02T19:40:04.755Z,7.40
2023-04-02T19:42:46.431Z,4.80
2023-04-02T19:45:36.417Z,4.28
2023-04-02T19:48:14.203Z,2.72
2023-04-02T19:50:44.427Z,6.32
2023-04-02T19:53:14.554Z,4.20
2023-04-02T19:55:47.799Z,2.80
2023-04-02T19:58:25.785Z,4.65
2023-04-02T20:00:55.578Z,2.60
2023-04-02T20:03:25.610Z,4.90
2023-04-02T20:05:57.048Z,4.93
2023-04-02T20:08:26.725Z,4.75
2023-04-02T20:11:00.236Z,4.85
2023-04-02T20:13:30.801Z,6.80
2023-04-02T20:16:02.649Z,2.47
2023-04-02T20:18:33.006Z,4.53
2023-04-02T20:21:07.741Z,2.40
2023-04-02T20:23:38.518Z,9.48
2023-04-02T20:26:11.791Z,5.97
2023-04-02T20:28:42.090Z,7.45
2023-04-02T20:31:13.994Z,5.68
2023-04-02T20:33:44.586Z,8.32
2023-04-02T20:36:16.519Z,6.22
2023-04-02T20:38:46.677Z,6.68
2023-04-02T20:41:18.956Z,5.47
2023-04-02T20:43:50.080Z,5.90
2023-04-02T20:46:20.240Z,4.20
2023-04-02T20:48:49.962Z,8.02
2023-04-02T20:51:19.943Z,9.63
2023-04-02T20:53:49.590Z,20.48
2023-04-02T20:56:23.455Z,19.65
2023-04-02T20:58:53.926Z,23.50
2023-04-02T21:01:26.683Z,26.80
2023-04-02T21:03:58.043Z,11.85
2023-04-02T21:06:29.938Z,13.05
2023-04-02T21:08:59.708Z,39.53
2023-04-02T21:11:32.051Z,14.10
2023-04-02T21:14:01.752Z,17.98
2023-04-02T21:16:33.276Z,24.20
2023-04-02T21:19:05.440Z,22.50
2023-04-02T21:21:36.384Z,27.42
2023-04-02T21:24:08.566Z,27.42
2023-04-02T21:26:42.860Z,11.93
2023-04-02T21:29:14.455Z,11.43
2023-04-02T21:31:45.146Z,8.98
2023-04-02T21:34:17.320Z,15.90
2023-04-02T21:36:50.491Z,20.67
2023-04-02T21:39:22.419Z,14.25
2023-04-02T21:41:56.145Z,9.15
2023-04-02T21:44:27.139Z,5.78
2023-04-02T21:46:57.005Z,5.28
2023-04-02T21:49:27.572Z,5.82
2023-04-02T21:51:57.306Z,18.48
2023-04-02T21:54:26.957Z,20.55
2023-04-02T21:56:59.858Z,11.25
2023-04-02T21:59:29.759Z,10.93
2023-04-02T22:01:59.424Z,16.40
2023-04-02T22:04:30.805Z,8.10
2023-04-02T22:07:00.570Z,11.70
2023-04-02T22:09:30.941Z,8.00
2023-04-02T22:12:03.241Z,19.25
2023-04-02T22:14:33.429Z,12.20
2023-04-02T22:17:04.143Z,9.68
2023-04-02T22:19:33.935Z,9.68
2023-04-02T22:22:03.787Z,12.50
2023-04-02T22:24:33.478Z,12.25
2023-04-02T22:27:06.061Z,8.23
2023-04-02T22:29:36.454Z,6.90
2023-04-02T22:32:06.125Z,3.63
2023-04-02T22:34:36.963Z,4.05
2023-04-02T22:37:06.946Z,3.20
2023-04-02T22:39:36.629Z,5.20
2023-04-02T22:42:09.095Z,3.17
2023-04-02T22:44:38.744Z,3.50
2023-04-02T22:47:08.424Z,4.93
2023-04-02T22:49:38.124Z,4.53
2023-04-02T22:52:09.215Z,5.72
2023-04-02T22:54:39.134Z,5.45
2023-04-02T22:57:11.470Z,3.50
2023-04-02T22:59:41.215Z,3.10
2023-04-02T23:02:10.852Z,4.38
2023-04-02T23:04:40.638Z,5.10
2023-04-02T23:07:10.369Z,3.83
2023-04-02T23:09:40.060Z,6.90
2023-04-02T23:12:12.486Z,3.92
2023-04-02T23:14:42.155Z,9.85
2023-04-02T23:17:11.896Z,5.60
2023-04-02T23:19:41.714Z,3.88
2023-04-02T23:22:11.541Z,3.35
2023-04-02T23:24:41.221Z,6.57
2023-04-02T23:27:13.468Z,4.53
2023-04-02T23:29:43.089Z,3.67
2023-04-02T23:32:12.824Z,3.03
2023-04-02T23:34:42.519Z,4.95
2023-04-02T23:37:12.546Z,5.22
2023-04-02T23:39:42.204Z,3.65
2023-04-02T23:42:14.692Z,3.40
2023-04-02T23:44:44.350Z,5.78
2023-04-02T23:47:14.038Z,3.67
2023-04-02T23:49:48.030Z,5.15
2023-04-02T23:52:18.325Z,4.75
2023-04-02T23:54:48.006Z,6.50
2023-04-02T23:57:20.537Z,4.00
2023-04-02T23:59:50.383Z,5.45
